This is the latest recevied weather packets stored in our database for station/object EA2DXT-10. If no packets are shown the sender has not sent any weather packets the latest 10 day(s).
| Time | Temp. | Humidity | Pressure | Rain* | Wind** | Luminosity | Snow |
|---|---|---|---|---|---|---|---|
| 1777470403 | 16.67° C | 74% | 940.7 hPa | - | - | - | - |
| 1777470309 | 16.67° C | 74% | 944 hPa | - | - | - | - |
| 1777468509 | 18.89° C | 73% | 940.9 hPa | - | - | - | - |
| 1777467608 | 18.89° C | 74% | 939.7 hPa | - | - | - | - |
| 1777466727 | 21.67° C | 72% | 941.1 hPa | - | - | - | - |
| 1777465806 | 23.33° C | 72% | 940.9 hPa | - | - | - | - |
| 1777464905 | 22.22° C | 75% | 940.9 hPa | - | - | - | - |
| 1777464005 | 22.78° C | 73% | 940.8 hPa | - | - | - | - |
| 1777463122 | 24.44° C | 75% | 942.1 hPa | - | - | - | - |
| 1777462204 | 24.44° C | 76% | 941.1 hPa | - | - | - | - |
| 1777461326 | 20° C | 84% | 941.2 hPa | - | - | - | - |
| 1777461304 | 19.44° C | 84% | 939.6 hPa | - | - | - | - |
| 1777461292 | 20° C | 84% | 941.2 hPa | - | - | - | - |
| 1777460391 | 21.67° C | 80% | 941.2 hPa | - | - | - | - |
| 1777460374 | 21.67° C | 80% | 941.3 hPa | - | - | - | - |
| 1777460363 | 21.67° C | 79% | 941.1 hPa | - | - | - | - |
| 1777459463 | 21.11° C | 84% | 942.9 hPa | - | - | - | - |
| 1777459445 | 15.56° C | 83% | 933.5 hPa | - | - | - | - |
| 1777459434 | 21.11° C | 84% | 941 hPa | - | - | - | - |
| 1777458534 | 20° C | 83% | 941.3 hPa | - | - | - | - |
| 1777458363 | 19.44° C | 83% | 941.4 hPa | - | - | - | - |
| 1777458203 | 18.89° C | 84% | 941.4 hPa | - | - | - | - |
| 1777457678 | 12.22° C | 84% | 933.1 hPa | - | - | - | - |
| 1777442990 | 12.78° C | 83% | 944.2 hPa | - | - | - | - |
| 1777442962 | 7.22° C | 82% | 932.3 hPa | - | - | - | - |
* Rain since midnight (hover to see other rain measurements)
** Current wind speed in m/s (hover to see current wind gust speed)